Time,TemperatureF,DewpointF,PressureIn,WindDirection,WindDirectionDegrees,WindSpeedMPH,WindSpeedGustMPH,Humidity,HourlyPrecipIn,Conditions,Clouds,dailyrainin,SoftwareType,DateUTC
2013-03-17 00:00:00,54.7,4.8,30.02,North,2,3.6,3.6,13,0.00,,,0.00,VWS V14.01,2013-03-17 07:00:00,
2013-03-17 00:05:00,54.5,4.7,30.02,North,353,8.7,8.7,13,0.00,,,0.00,VWS V14.01,2013-03-17 07:05:00,
2013-03-17 00:11:00,54.7,4.8,30.02,North,10,2.7,4.9,13,0.00,,,0.00,VWS V14.01,2013-03-17 07:11:00,
2013-03-17 00:16:00,54.7,4.8,30.02,North,4,2.7,5.4,13,0.00,,,0.00,VWS V14.01,2013-03-17 07:16:00,
2013-03-17 00:21:00,54.7,4.8,30.02,NNE,19,3.1,7.6,13,0.00,,,0.00,VWS V14.01,2013-03-17 07:21:00,
2013-03-17 00:26:00,54.9,5.0,30.02,NNW,343,6.3,6.3,13,0.00,,,0.00,VWS V14.01,2013-03-17 07:26:00,
2013-03-17 00:31:00,54.7,4.8,30.02,North,5,4.9,5.8,13,0.00,,,0.00,VWS V14.01,2013-03-17 07:31:00,
2013-03-17 00:36:00,54.5,4.7,30.02,NNW,343,4.9,4.9,13,0.00,,,0.00,VWS V14.01,2013-03-17 07:36:00,
2013-03-17 00:41:00,54.5,4.7,30.02,NW,316,3.1,5.4,13,0.00,,,0.00,VWS V14.01,2013-03-17 07:41:00,
2013-03-17 00:46:00,54.7,4.8,30.02,North,357,2.7,5.4,13,0.00,,,0.00,VWS V14.01,2013-03-17 07:46:00,
2013-03-17 00:51:00,54.5,4.7,30.02,NNW,339,4.9,6.3,13,0.00,,,0.00,VWS V14.01,2013-03-17 07:51:00,
2013-03-17 00:56:00,54.3,4.5,30.02,North,1,3.6,4.0,13,0.00,,,0.00,VWS V14.01,2013-03-17 07:56:00,
2013-03-17 01:01:00,54.1,4.4,30.02,WNW,286,3.6,3.6,13,0.00,,,0.00,VWS V14.01,2013-03-17 08:01:00,
2013-03-17 01:06:00,54.3,4.5,30.02,NNE,26,2.7,2.7,13,0.00,,,0.00,VWS V14.01,2013-03-17 08:06:00,
2013-03-17 01:11:00,54.5,4.7,30.02,NNW,337,2.7,2.7,13,0.00,,,0.00,VWS V14.01,2013-03-17 08:11:00,
2013-03-17 01:16:00,54.3,4.5,30.02,WNW,288,3.1,3.1,13,0.00,,,0.00,VWS V14.01,2013-03-17 08:16:00,
2013-03-17 01:21:00,54.1,4.4,30.02,North,1,7.2,7.2,13,0.00,,,0.00,VWS V14.01,2013-03-17 08:21:00,
2013-03-17 01:26:00,54.1,4.4,30.02,WNW,303,4.0,8.1,13,0.00,,,0.00,VWS V14.01,2013-03-17 08:26:00,
2013-03-17 01:31:00,54.0,4.2,30.02,North,3,3.6,4.0,13,0.00,,,0.00,VWS V14.01,2013-03-17 08:31:00,
2013-03-17 01:37:00,54.0,4.2,30.02,NNW,341,3.6,5.4,13,0.00,,,0.00,VWS V14.01,2013-03-17 08:37:00,
2013-03-17 01:42:00,54.0,4.2,30.02,West,263,8.1,8.1,13,0.00,,,0.00,VWS V14.01,2013-03-17 08:42:00,
2013-03-17 01:47:00,54.0,4.2,30.02,West,280,8.7,8.7,13,0.00,,,0.00,VWS V14.01,2013-03-17 08:47:00,
2013-03-17 01:52:00,54.1,4.4,30.02,WSW,244,3.1,3.1,13,0.00,,,0.00,VWS V14.01,2013-03-17 08:52:00,
2013-03-17 01:57:00,54.3,4.5,30.02,WNW,288,4.9,6.3,13,0.00,,,0.00,VWS V14.01,2013-03-17 08:57:00,
2013-03-17 02:02:00,54.5,4.7,30.02,North,353,8.1,8.3,13,0.00,,,0.00,VWS V14.01,2013-03-17 09:02:00,
2013-03-17 02:07:00,54.1,4.4,30.02,North,0,3.1,4.0,13,0.00,,,0.00,VWS V14.01,2013-03-17 09:07:00,
2013-03-17 02:12:00,53.8,4.1,30.02,NNE,16,4.0,4.9,13,0.00,,,0.00,VWS V14.01,2013-03-17 09:12:00,
2013-03-17 02:17:00,53.4,3.8,30.02,NNE,14,4.9,4.9,13,0.00,,,0.00,VWS V14.01,2013-03-17 09:17:00,
2013-03-17 02:22:00,53.1,3.5,30.02,North,353,4.0,5.4,13,0.00,,,0.00,VWS V14.01,2013-03-17 09:22:00,
2013-03-17 02:27:00,52.7,3.2,30.02,NNE,15,5.4,5.4,13,0.00,,,0.00,VWS V14.01,2013-03-17 09:27:00,
2013-03-17 02:32:00,52.5,3.1,30.02,NNE,17,5.8,5.8,13,0.00,,,0.00,VWS V14.01,2013-03-17 09:32:00,
2013-03-17 02:37:00,52.3,7.5,30.02,North,1,6.3,6.3,16,0.00,,,0.00,VWS V14.01,2013-03-17 09:37:00,
2013-03-17 02:42:00,52.3,7.5,30.02,North,357,3.1,4.0,16,0.00,,,0.00,VWS V14.01,2013-03-17 09:42:00,
2013-03-17 02:47:00,52.2,7.3,30.02,West,265,3.1,5.4,16,0.00,,,0.00,VWS V14.01,2013-03-17 09:47:00,
2013-03-17 02:52:00,52.2,7.3,30.02,North,353,3.1,4.0,16,0.00,,,0.00,VWS V14.01,2013-03-17 09:52:00,
2013-03-17 02:57:00,52.2,7.3,30.02,NNW,334,2.7,3.1,16,0.00,,,0.00,VWS V14.01,2013-03-17 09:57:00,
2013-03-17 03:02:00,52.2,7.3,30.02,NNW,338,0.0,0.0,16,0.00,,,0.00,VWS V14.01,2013-03-17 10:02:00,
2013-03-17 03:07:00,52.0,7.2,30.02,NNW,335,2.7,2.7,16,0.00,,,0.00,VWS V14.01,2013-03-17 10:07:00,
2013-03-17 03:12:00,51.8,7.1,30.02,NNW,344,0.0,0.0,16,0.00,,,0.00,VWS V14.01,2013-03-17 10:12:00,
2013-03-17 03:17:00,51.6,6.9,30.02,NNW,344,0.0,0.0,16,0.00,,,0.00,VWS V14.01,2013-03-17 10:17:00,
2013-03-17 03:22:00,51.3,6.6,30.02,NNW,344,0.0,0.0,16,0.00,,,0.00,VWS V14.01,2013-03-17 10:22:00,
2013-03-17 03:27:00,50.7,6.2,30.02,NNE,29,2.7,3.6,16,0.00,,,0.00,VWS V14.01,2013-03-17 10:27:00,
2013-03-17 03:32:00,50.4,5.9,30.02,NNE,29,2.7,2.7,16,0.00,,,0.00,VWS V14.01,2013-03-17 10:32:00,
2013-03-17 03:37:00,50.2,5.7,30.02,NNE,30,0.0,0.0,16,0.00,,,0.00,VWS V14.01,2013-03-17 10:37:00,
2013-03-17 03:42:00,50.2,5.7,30.02,NNE,29,2.7,4.0,16,0.00,,,0.00,VWS V14.01,2013-03-17 10:42:00,
2013-03-17 03:47:00,50.0,5.6,30.02,NNE,29,0.0,0.0,16,0.00,,,0.00,VWS V14.01,2013-03-17 10:47:00,
2013-03-17 03:52:00,49.8,9.2,30.02,NNE,30,0.0,0.0,19,0.00,,,0.00,VWS V14.01,2013-03-17 10:52:00,
2013-03-17 03:58:00,49.5,8.9,30.02,NNE,29,0.0,0.0,19,0.00,,,0.00,VWS V14.01,2013-03-17 10:58:00,
2013-03-17 04:03:00,49.1,8.6,30.02,NNE,29,0.0,0.0,19,0.00,,,0.00,VWS V14.01,2013-03-17 11:03:00,
2013-03-17 04:08:00,48.7,8.3,30.02,NNE,29,0.0,0.0,19,0.00,,,0.00,VWS V14.01,2013-03-17 11:08:00,
2013-03-17 04:13:00,48.6,8.2,30.02,NNE,29,0.0,0.0,19,0.00,,,0.00,VWS V14.01,2013-03-17 11:13:00,
2013-03-17 04:18:00,48.4,8.0,30.02,NNE,29,0.0,0.0,19,0.00,,,0.00,VWS V14.01,2013-03-17 11:18:00,
2013-03-17 04:23:00,48.4,8.0,30.02,NNE,29,0.0,0.0,19,0.00,,,0.00,VWS V14.01,2013-03-17 11:23:00,
2013-03-17 04:28:00,48.0,11.0,29.99,NNE,29,0.0,0.0,22,0.00,,,0.00,VWS V14.01,2013-03-17 11:28:00,
2013-03-17 04:33:00,47.7,10.7,29.99,NNE,29,0.0,0.0,22,0.00,,,0.00,VWS V14.01,2013-03-17 11:33:00,
2013-03-17 04:38:00,47.5,10.6,29.99,NNE,29,0.0,0.0,22,0.00,,,0.00,VWS V14.01,2013-03-17 11:38:00,
2013-03-17 04:43:00,47.5,12.5,29.99,NNE,29,0.0,0.0,24,0.00,,,0.00,VWS V14.01,2013-03-17 11:43:00,
2013-03-17 04:48:00,47.5,15.2,29.99,NNE,30,0.0,0.0,27,0.00,,,0.00,VWS V14.01,2013-03-17 11:48:00,
2013-03-17 04:53:00,47.7,15.3,29.99,NNE,29,0.0,0.0,27,0.00,,,0.00,VWS V14.01,2013-03-17 11:53:00,
2013-03-17 04:58:00,47.8,16.3,30.02,NNE,29,0.0,0.0,28,0.00,,,0.00,VWS V14.01,2013-03-17 11:58:00,
2013-03-17 05:03:00,47.7,16.2,30.02,NNE,29,0.0,0.0,28,0.00,,,0.00,VWS V14.01,2013-03-17 12:03:00,
2013-03-17 05:08:00,47.5,16.8,30.02,NNE,29,0.0,0.0,29,0.00,,,0.00,VWS V14.01,2013-03-17 12:08:00,
2013-03-17 05:13:00,47.5,18.4,29.99,NNE,29,0.0,0.0,31,0.00,,,0.00,VWS V14.01,2013-03-17 12:13:00,
2013-03-17 05:18:00,47.3,20.4,29.99,NNE,29,0.0,0.0,34,0.00,,,0.00,VWS V14.01,2013-03-17 12:18:00,
2013-03-17 05:23:00,47.3,21.0,29.99,NNE,29,0.0,0.0,35,0.00,,,0.00,VWS V14.01,2013-03-17 12:23:00,
2013-03-17 05:28:00,47.3,21.7,29.99,NNE,29,2.2,2.2,36,0.00,,,0.00,VWS V14.01,2013-03-17 12:28:00,
2013-03-17 05:33:00,47.3,22.4,29.99,NNE,30,0.0,0.0,37,0.00,,,0.00,VWS V14.01,2013-03-17 12:33:00,
2013-03-17 05:38:00,47.3,22.4,29.99,ESE,105,3.1,5.8,37,0.00,,,0.00,VWS V14.01,2013-03-17 12:38:00,
2013-03-17 05:43:00,47.8,23.5,29.99,ESE,105,0.0,2.2,38,0.00,,,0.00,VWS V14.01,2013-03-17 12:43:00,
2013-03-17 05:48:00,47.7,23.3,29.99,ESE,104,0.0,0.0,38,0.00,,,0.00,VWS V14.01,2013-03-17 12:48:00,
2013-03-17 05:53:00,47.7,23.3,29.99,North,6,0.0,0.0,38,0.00,,,0.00,VWS V14.01,2013-03-17 12:53:00,
2013-03-17 05:58:00,47.3,23.0,29.99,North,3,0.0,0.0,38,0.00,,,0.00,VWS V14.01,2013-03-17 12:58:00,
2013-03-17 06:03:00,47.3,23.0,29.99,North,3,0.0,0.0,38,0.00,,,0.00,VWS V14.01,2013-03-17 13:03:00,
2013-03-17 06:08:00,47.3,23.0,29.99,NW,318,2.2,2.7,38,0.00,,,0.00,VWS V14.01,2013-03-17 13:08:00,
2013-03-17 06:13:00,47.3,23.0,29.99,NNW,339,0.0,0.0,38,0.00,,,0.00,VWS V14.01,2013-03-17 13:13:00,
2013-03-17 06:18:00,47.1,22.8,29.99,NNW,339,0.0,0.0,38,0.00,,,0.00,VWS V14.01,2013-03-17 13:18:00,
2013-03-17 06:23:00,47.1,22.8,29.99,NNW,339,0.0,0.0,38,0.00,,,0.00,VWS V14.01,2013-03-17 13:23:00,
2013-03-17 06:28:00,46.8,22.5,30.02,NNW,339,0.0,0.0,38,0.00,,,0.00,VWS V14.01,2013-03-17 13:28:00,
2013-03-17 06:33:00,46.4,22.2,30.02,NNW,339,0.0,0.0,38,0.00,,,0.00,VWS V14.01,2013-03-17 13:33:00,
2013-03-17 06:38:00,46.2,22.0,30.02,NNW,339,0.0,0.0,38,0.00,,,0.00,VWS V14.01,2013-03-17 13:38:00,
2013-03-17 06:43:00,46.0,21.9,30.02,NNW,339,0.0,0.0,38,0.00,,,0.00,VWS V14.01,2013-03-17 13:43:00,
2013-03-17 06:48:00,46.0,21.9,30.02,NNW,339,0.0,0.0,38,0.00,,,0.00,VWS V14.01,2013-03-17 13:48:00,
2013-03-17 06:53:00,45.9,21.7,30.02,NNW,339,0.0,0.0,38,0.00,,,0.00,VWS V14.01,2013-03-17 13:53:00,
2013-03-17 06:58:00,45.7,21.5,30.05,NNW,339,0.0,0.0,38,0.00,,,0.00,VWS V14.01,2013-03-17 13:58:00,
2013-03-17 07:03:00,45.5,21.4,30.05,NNW,339,0.0,0.0,38,0.00,,,0.00,VWS V14.01,2013-03-17 14:03:00,
2013-03-17 07:08:00,45.5,21.4,30.05,NNW,339,0.0,0.0,38,0.00,,,0.00,VWS V14.01,2013-03-17 14:08:00,
2013-03-17 07:13:00,45.7,22.2,30.05,NNE,22,0.0,0.0,39,0.00,,,0.00,VWS V14.01,2013-03-17 14:13:00,
2013-03-17 07:18:00,45.9,22.3,30.05,North,357,2.2,2.7,39,0.00,,,0.00,VWS V14.01,2013-03-17 14:18:00,
2013-03-17 07:23:00,46.0,21.9,30.05,North,357,2.7,3.6,38,0.00,,,0.00,VWS V14.01,2013-03-17 14:23:00,
2013-03-17 07:28:00,46.2,22.0,30.05,North,11,0.0,0.0,38,0.00,,,0.00,VWS V14.01,2013-03-17 14:28:00,
2013-03-17 07:33:00,46.4,21.6,30.05,North,11,2.2,2.7,37,0.00,,,0.00,VWS V14.01,2013-03-17 14:33:00,
2013-03-17 07:38:00,46.4,21.6,30.05,North,11,0.0,0.0,37,0.00,,,0.00,VWS V14.01,2013-03-17 14:38:00,
2013-03-17 07:43:00,46.2,21.4,30.05,North,11,0.0,0.0,37,0.00,,,0.00,VWS V14.01,2013-03-17 14:43:00,
2013-03-17 07:48:00,46.0,21.2,30.05,North,11,0.0,0.0,37,0.00,,,0.00,VWS V14.01,2013-03-17 14:48:00,
2013-03-17 07:53:00,46.0,21.2,30.05,North,11,0.0,0.0,37,0.00,,,0.00,VWS V14.01,2013-03-17 14:53:00,
2013-03-17 07:58:00,46.0,21.2,30.05,North,11,0.0,0.0,37,0.00,,,0.00,VWS V14.01,2013-03-17 14:58:00,
2013-03-17 08:03:00,46.2,22.0,30.05,North,11,0.0,0.0,38,0.00,,,0.00,VWS V14.01,2013-03-17 15:03:00,
2013-03-17 08:08:00,46.4,21.6,30.05,North,11,0.0,0.0,37,0.00,,,0.00,VWS V14.01,2013-03-17 15:08:00,
2013-03-17 08:13:00,47.1,22.8,30.05,North,11,0.0,0.0,38,0.00,,,0.00,VWS V14.01,2013-03-17 15:13:00,
2013-03-17 08:18:00,48.0,23.6,30.05,North,11,0.0,0.0,38,0.00,,,0.00,VWS V14.01,2013-03-17 15:18:00,
2013-03-17 08:23:00,49.1,24.6,30.05,North,11,0.0,0.0,38,0.00,,,0.00,VWS V14.01,2013-03-17 15:23:00,
2013-03-17 08:28:00,50.0,24.8,30.05,North,11,0.0,0.0,37,0.00,,,0.00,VWS V14.01,2013-03-17 15:28:00,
2013-03-17 08:33:00,50.5,25.2,30.05,North,11,0.0,0.0,37,0.00,,,0.00,VWS V14.01,2013-03-17 15:33:00,
2013-03-17 08:38:00,50.5,25.2,30.05,NW,313,0.0,3.1,37,0.00,,,0.00,VWS V14.01,2013-03-17 15:38:00,
2013-03-17 08:43:00,50.4,22.4,30.05,SW,221,0.0,4.0,33,0.00,,,0.00,VWS V14.01,2013-03-17 15:43:00,
2013-03-17 08:48:00,50.4,20.1,30.05,WNW,297,0.0,0.0,30,0.00,,,0.00,VWS V14.01,2013-03-17 15:48:00,
2013-03-17 08:53:00,50.4,19.3,30.05,WNW,295,0.0,0.0,29,0.00,,,0.00,VWS V14.01,2013-03-17 15:53:00,
2013-03-17 08:58:00,50.4,17.7,30.05,WNW,300,0.0,0.0,27,0.00,,,0.00,VWS V14.01,2013-03-17 15:58:00,
2013-03-17 09:03:00,50.9,18.1,30.05,WNW,300,0.0,0.0,27,0.00,,,0.00,VWS V14.01,2013-03-17 16:03:00,
2013-03-17 09:08:00,51.3,18.4,30.05,ENE,74,2.7,4.0,27,0.00,,,0.00,VWS V14.01,2013-03-17 16:08:00,
2013-03-17 09:13:00,51.1,17.4,30.05,NNE,12,2.2,3.1,26,0.00,,,0.00,VWS V14.01,2013-03-17 16:13:00,
2013-03-17 09:18:00,50.9,17.2,30.05,NNE,12,0.0,0.0,26,0.00,,,0.00,VWS V14.01,2013-03-17 16:18:00,
2013-03-17 09:23:00,51.1,17.4,30.05,WSW,248,2.7,3.6,26,0.00,,,0.00,VWS V14.01,2013-03-17 16:23:00,
2013-03-17 09:28:00,51.3,15.7,30.08,West,267,3.1,4.0,24,0.00,,,0.00,VWS V14.01,2013-03-17 16:28:00,
2013-03-17 09:33:00,51.3,12.7,30.08,West,279,3.1,6.3,21,0.00,,,0.00,VWS V14.01,2013-03-17 16:33:00,
2013-03-17 09:38:00,51.6,13.0,30.08,WNW,283,3.1,3.6,21,0.00,,,0.00,VWS V14.01,2013-03-17 16:38:00,
2013-03-17 09:44:00,52.0,9.8,30.05,NW,306,4.0,4.0,18,0.00,,,0.00,VWS V14.01,2013-03-17 16:44:00,
2013-03-17 09:49:00,52.0,9.8,30.05,West,281,4.9,4.9,18,0.00,,,0.00,VWS V14.01,2013-03-17 16:49:00,
2013-03-17 09:54:00,52.2,10.0,30.05,NW,310,3.1,5.8,18,0.00,,,0.00,VWS V14.01,2013-03-17 16:54:00,
2013-03-17 09:59:00,52.2,7.3,30.08,WNW,301,6.3,7.2,16,0.00,,,0.00,VWS V14.01,2013-03-17 16:59:00,
2013-03-17 10:04:00,52.3,7.5,30.08,NNW,341,5.4,5.4,16,0.00,,,0.00,VWS V14.01,2013-03-17 17:04:00,
2013-03-17 10:09:00,52.5,7.6,30.08,NW,312,4.0,6.3,16,0.00,,,0.00,VWS V14.01,2013-03-17 17:09:00,
2013-03-17 10:14:00,53.1,8.1,30.08,WNW,297,2.7,3.1,16,0.00,,,0.00,VWS V14.01,2013-03-17 17:14:00,
2013-03-17 10:19:00,53.2,3.7,30.08,WNW,289,5.8,6.3,13,0.00,,,0.00,VWS V14.01,2013-03-17 17:19:00,
2013-03-17 10:24:00,53.4,3.8,30.08,WNW,289,2.2,4.9,13,0.00,,,0.00,VWS V14.01,2013-03-17 17:24:00,
2013-03-17 10:29:00,54.0,4.2,30.08,NW,320,2.2,3.6,13,0.00,,,0.00,VWS V14.01,2013-03-17 17:29:00,
2013-03-17 10:34:00,54.5,4.7,30.08,WNW,301,4.0,4.9,13,0.00,,,0.00,VWS V14.01,2013-03-17 17:34:00,
2013-03-17 10:39:00,54.9,5.0,30.08,WNW,283,5.4,5.8,13,0.00,,,0.00,VWS V14.01,2013-03-17 17:39:00,
2013-03-17 10:44:00,54.9,5.0,30.08,WNW,287,4.9,5.8,13,0.00,,,0.00,VWS V14.01,2013-03-17 17:44:00,
2013-03-17 10:49:00,54.9,5.0,30.08,WNW,289,4.0,7.6,13,0.00,,,0.00,VWS V14.01,2013-03-17 17:49:00,
2013-03-17 10:54:00,54.9,5.0,30.08,WNW,300,5.4,5.4,13,0.00,,,0.00,VWS V14.01,2013-03-17 17:54:00,
2013-03-17 10:59:00,55.2,5.2,30.05,WNW,283,3.1,3.1,13,0.00,,,0.00,VWS V14.01,2013-03-17 17:59:00,
2013-03-17 11:04:00,55.9,4.1,30.05,North,4,4.0,4.0,12,0.00,,,0.00,VWS V14.01,2013-03-17 18:04:00,
2013-03-17 11:09:00,56.5,4.5,30.05,NNW,334,3.6,5.8,12,0.00,,,0.00,VWS V14.01,2013-03-17 18:09:00,
2013-03-17 11:14:00,56.7,4.6,30.08,North,353,2.2,4.0,12,0.00,,,0.00,VWS V14.01,2013-03-17 18:14:00,
2013-03-17 11:19:00,56.8,4.8,30.08,ENE,62,2.7,2.7,12,0.00,,,0.00,VWS V14.01,2013-03-17 18:19:00,
2013-03-17 11:24:00,57.2,5.1,30.08,North,5,3.1,3.1,12,0.00,,,0.00,VWS V14.01,2013-03-17 18:24:00,
2013-03-17 11:29:00,57.6,5.3,30.08,NNW,331,0.0,0.0,12,0.00,,,0.00,VWS V14.01,2013-03-17 18:29:00,
2013-03-17 11:34:00,57.7,5.5,30.08,North,8,3.1,3.1,12,0.00,,,0.00,VWS V14.01,2013-03-17 18:34:00,
2013-03-17 11:39:00,58.3,5.9,30.08,NNW,342,0.0,0.0,12,0.00,,,0.00,VWS V14.01,2013-03-17 18:39:00,
2013-03-17 11:44:00,58.6,6.2,30.08,North,1,4.9,4.9,12,0.00,,,0.00,VWS V14.01,2013-03-17 18:44:00,
2013-03-17 11:49:00,58.8,6.3,30.08,NNE,30,2.7,4.0,12,0.00,,,0.00,VWS V14.01,2013-03-17 18:49:00,
2013-03-17 11:54:00,58.8,6.3,30.08,West,280,2.7,3.1,12,0.00,,,0.00,VWS V14.01,2013-03-17 18:54:00,
2013-03-17 11:59:00,59.2,6.6,30.05,West,273,3.1,4.0,12,0.00,,,0.00,VWS V14.01,2013-03-17 18:59:00,
2013-03-17 12:04:00,59.4,6.8,30.05,West,266,2.2,2.7,12,0.00,,,0.00,VWS V14.01,2013-03-17 19:04:00,
2013-03-17 12:09:00,59.5,6.9,30.05,North,0,4.0,4.0,12,0.00,,,0.00,VWS V14.01,2013-03-17 19:09:00,
2013-03-17 12:14:00,59.9,7.2,30.05,North,349,2.2,2.2,12,0.00,,,0.00,VWS V14.01,2013-03-17 19:14:00,
2013-03-17 12:19:00,60.4,7.6,30.05,NNW,343,4.0,4.0,12,0.00,,,0.00,VWS V14.01,2013-03-17 19:19:00,
2013-03-17 12:24:00,60.6,7.8,30.05,West,278,3.6,5.8,12,0.00,,,0.00,VWS V14.01,2013-03-17 19:24:00,
2013-03-17 12:29:00,61.0,6.1,30.05,West,277,3.1,3.1,11,0.00,,,0.00,VWS V14.01,2013-03-17 19:29:00,
2013-03-17 12:34:00,61.3,6.4,30.05,West,275,2.7,3.6,11,0.00,,,0.00,VWS V14.01,2013-03-17 19:34:00,
2013-03-17 12:39:00,61.9,6.8,30.05,WSW,257,2.2,3.1,11,0.00,,,0.00,VWS V14.01,2013-03-17 19:39:00,
2013-03-17 12:44:00,61.9,6.8,30.05,West,279,4.0,4.0,11,0.00,,,0.00,VWS V14.01,2013-03-17 19:44:00,
2013-03-17 12:49:00,62.2,7.1,30.05,West,280,3.1,3.6,11,0.00,,,0.00,VWS V14.01,2013-03-17 19:49:00,
2013-03-17 12:54:00,63.1,7.8,30.05,East,82,3.1,3.1,11,0.00,,,0.00,VWS V14.01,2013-03-17 19:54:00,
2013-03-17 12:59:00,63.7,8.2,30.05,SW,214,3.6,4.9,11,0.00,,,0.00,VWS V14.01,2013-03-17 19:59:00,
2013-03-17 13:04:00,64.0,8.5,30.05,SSE,167,2.7,3.6,11,0.00,,,0.00,VWS V14.01,2013-03-17 20:04:00,
2013-03-17 13:09:00,63.9,8.4,30.05,West,265,3.1,5.4,11,0.00,,,0.00,VWS V14.01,2013-03-17 20:09:00,
2013-03-17 13:14:00,63.7,8.2,30.05,SSW,193,3.1,4.0,11,0.00,,,0.00,VWS V14.01,2013-03-17 20:14:00,
2013-03-17 13:19:00,63.7,8.2,30.05,SW,228,3.6,4.0,11,0.00,,,0.00,VWS V14.01,2013-03-17 20:19:00,
2013-03-17 13:24:00,63.9,8.4,30.05,SSW,201,5.4,5.4,11,0.00,,,0.00,VWS V14.01,2013-03-17 20:24:00,
2013-03-17 13:29:00,64.2,8.6,30.02,SW,215,5.4,5.4,11,0.00,,,0.00,VWS V14.01,2013-03-17 20:29:00,
2013-03-17 13:34:00,63.9,8.4,30.02,SSW,200,6.3,6.3,11,0.00,,,0.00,VWS V14.01,2013-03-17 20:34:00,
2013-03-17 13:39:00,63.7,8.2,30.02,SW,216,5.4,5.4,11,0.00,,,0.00,VWS V14.01,2013-03-17 20:39:00,
2013-03-17 13:44:00,63.5,8.1,30.02,SSW,195,5.4,6.3,11,0.00,,,0.00,VWS V14.01,2013-03-17 20:44:00,
2013-03-17 13:49:00,64.2,8.6,30.02,West,260,5.8,5.8,11,0.00,,,0.00,VWS V14.01,2013-03-17 20:49:00,
2013-03-17 13:54:00,64.6,6.8,30.02,SSW,196,3.1,5.4,10,0.00,,,0.00,VWS V14.01,2013-03-17 20:54:00,
2013-03-17 13:59:00,64.8,6.9,30.02,West,281,4.9,4.9,10,0.00,,,0.00,VWS V14.01,2013-03-17 20:59:00,
2013-03-17 14:04:00,64.4,6.7,30.02,SSW,202,2.7,4.0,10,0.00,,,0.00,VWS V14.01,2013-03-17 21:04:00,
2013-03-17 14:09:00,64.8,6.9,30.02,West,272,4.0,5.4,10,0.00,,,0.00,VWS V14.01,2013-03-17 21:09:00,
2013-03-17 14:14:00,64.0,8.5,30.02,WSW,242,4.0,4.0,11,0.00,,,0.00,VWS V14.01,2013-03-17 21:14:00,
2013-03-17 14:19:00,64.2,8.6,30.02,SSW,203,3.6,5.4,11,0.00,,,0.00,VWS V14.01,2013-03-17 21:19:00,
2013-03-17 14:24:00,64.9,7.1,30.02,SW,225,3.1,6.3,10,0.00,,,0.00,VWS V14.01,2013-03-17 21:24:00,
2013-03-17 14:29:00,64.8,6.9,30.02,SSW,211,4.0,5.4,10,0.00,,,0.00,VWS V14.01,2013-03-17 21:29:00,
2013-03-17 14:35:00,64.8,6.9,30.02,SW,216,5.8,5.8,10,0.00,,,0.00,VWS V14.01,2013-03-17 21:35:00,
2013-03-17 14:40:00,64.2,8.6,30.02,SW,219,4.0,4.9,11,0.00,,,0.00,VWS V14.01,2013-03-17 21:40:00,
2013-03-17 14:45:00,64.0,8.5,29.99,WSW,248,5.4,5.4,11,0.00,,,0.00,VWS V14.01,2013-03-17 21:45:00,
2013-03-17 14:50:00,64.0,8.5,29.99,SW,222,5.4,5.8,11,0.00,,,0.00,VWS V14.01,2013-03-17 21:50:00,
2013-03-17 14:55:00,63.5,8.1,29.99,SW,231,3.6,5.4,11,0.00,,,0.00,VWS V14.01,2013-03-17 21:55:00,
2013-03-17 15:00:00,63.7,8.2,29.99,SSW,210,2.2,4.0,11,0.00,,,0.00,VWS V14.01,2013-03-17 22:00:00,
2013-03-17 15:05:00,63.3,7.9,29.99,ESE,118,2.2,4.0,11,0.00,,,0.00,VWS V14.01,2013-03-17 22:05:00,
2013-03-17 15:10:00,63.1,7.8,29.99,WSW,238,5.4,5.4,11,0.00,,,0.00,VWS V14.01,2013-03-17 22:10:00,
2013-03-17 15:15:00,63.5,8.1,29.99,SSW,200,4.0,4.0,11,0.00,,,0.00,VWS V14.01,2013-03-17 22:15:00,
2013-03-17 15:20:00,64.4,6.7,29.99,SW,234,3.1,4.9,10,0.00,,,0.00,VWS V14.01,2013-03-17 22:20:00,
2013-03-17 15:25:00,64.9,7.1,29.99,SSW,203,2.7,4.0,10,0.00,,,0.00,VWS V14.01,2013-03-17 22:25:00,
2013-03-17 15:30:00,65.3,7.4,29.99,SW,229,5.4,6.7,10,0.00,,,0.00,VWS V14.01,2013-03-17 22:30:00,
2013-03-17 15:35:00,64.9,7.1,29.99,SSW,198,3.6,4.9,10,0.00,,,0.00,VWS V14.01,2013-03-17 22:35:00,
2013-03-17 15:40:00,64.4,6.7,29.99,WSW,240,2.7,2.7,10,0.00,,,0.00,VWS V14.01,2013-03-17 22:40:00,
2013-03-17 15:45:00,64.2,8.6,29.99,South,176,4.0,4.0,11,0.00,,,0.00,VWS V14.01,2013-03-17 22:45:00,
2013-03-17 15:50:00,63.9,8.4,29.99,SSW,210,3.6,4.0,11,0.00,,,0.00,VWS V14.01,2013-03-17 22:50:00,
2013-03-17 15:55:00,63.9,8.4,29.99,SSW,200,5.4,5.8,11,0.00,,,0.00,VWS V14.01,2013-03-17 22:55:00,
2013-03-17 16:00:00,63.9,8.4,29.99,WSW,238,5.4,6.3,11,0.00,,,0.00,VWS V14.01,2013-03-17 23:00:00,
2013-03-17 16:05:00,64.0,8.5,29.99,SW,226,6.3,6.3,11,0.00,,,0.00,VWS V14.01,2013-03-17 23:05:00,
2013-03-17 16:10:00,64.0,8.5,29.99,South,182,3.6,3.6,11,0.00,,,0.00,VWS V14.01,2013-03-17 23:10:00,
2013-03-17 16:15:00,63.9,8.4,29.99,WSW,244,2.7,4.0,11,0.00,,,0.00,VWS V14.01,2013-03-17 23:15:00,
2013-03-17 16:20:00,63.3,7.9,29.99,West,270,5.8,5.8,11,0.00,,,0.00,VWS V14.01,2013-03-17 23:20:00,
2013-03-17 16:25:00,63.0,7.7,29.99,SSW,206,3.6,5.8,11,0.00,,,0.00,VWS V14.01,2013-03-17 23:25:00,
2013-03-17 16:30:00,62.2,7.1,29.99,SSW,205,7.6,7.6,11,0.00,,,0.00,VWS V14.01,2013-03-17 23:30:00,
2013-03-17 16:35:00,62.2,7.1,29.99,West,267,5.4,6.3,11,0.00,,,0.00,VWS V14.01,2013-03-17 23:35:00,
2013-03-17 16:40:00,61.9,6.8,29.99,SSW,196,8.3,8.3,11,0.00,,,0.00,VWS V14.01,2013-03-17 23:40:00,
2013-03-17 16:45:00,61.5,6.5,29.99,SSW,210,2.7,4.0,11,0.00,,,0.00,VWS V14.01,2013-03-17 23:45:00,
2013-03-17 16:50:00,61.3,6.4,29.99,SSW,195,4.0,5.8,11,0.00,,,0.00,VWS V14.01,2013-03-17 23:50:00,
2013-03-17 16:55:00,61.2,6.3,29.99,SW,221,3.6,4.0,11,0.00,,,0.00,VWS V14.01,2013-03-17 23:55:00,
2013-03-17 17:00:00,61.7,6.7,29.99,SSW,209,3.6,3.6,11,0.00,,,0.00,VWS V14.01,2013-03-18 00:00:00,
2013-03-17 17:05:00,62.1,7.0,29.99,SW,223,2.7,4.9,11,0.00,,,0.00,VWS V14.01,2013-03-18 00:05:00,
2013-03-17 17:10:00,61.9,6.8,29.99,SE,141,3.1,5.4,11,0.00,,,0.00,VWS V14.01,2013-03-18 00:10:00,
2013-03-17 17:15:00,62.2,7.1,29.99,SW,228,4.0,4.0,11,0.00,,,0.00,VWS V14.01,2013-03-18 00:15:00,
2013-03-17 17:20:00,62.6,7.4,29.99,SSW,196,2.7,3.6,11,0.00,,,0.00,VWS V14.01,2013-03-18 00:20:00,
2013-03-17 17:25:00,62.8,7.5,29.99,SSW,207,2.7,6.3,11,0.00,,,0.00,VWS V14.01,2013-03-18 00:25:00,
2013-03-17 17:30:00,62.4,7.2,29.99,SSE,147,0.0,5.4,11,0.00,,,0.00,VWS V14.01,2013-03-18 00:30:00,
2013-03-17 17:35:00,62.1,7.0,29.99,SSW,202,2.7,4.9,11,0.00,,,0.00,VWS V14.01,2013-03-18 00:35:00,
2013-03-17 17:40:00,61.9,6.8,29.99,South,171,4.0,4.0,11,0.00,,,0.00,VWS V14.01,2013-03-18 00:40:00,
2013-03-17 17:45:00,61.5,6.5,29.99,SW,217,3.1,3.6,11,0.00,,,0.00,VWS V14.01,2013-03-18 00:45:00,
2013-03-17 17:50:00,61.0,6.1,29.99,SW,221,2.7,3.1,11,0.00,,,0.00,VWS V14.01,2013-03-18 00:50:00,
2013-03-17 17:55:00,60.4,7.6,29.99,ESE,111,2.2,3.1,12,0.00,,,0.00,VWS V14.01,2013-03-18 00:55:00,
2013-03-17 18:01:00,60.1,7.3,29.99,ESE,118,2.7,3.1,12,0.00,,,0.00,VWS V14.01,2013-03-18 01:01:00,
2013-03-17 18:06:00,59.5,6.9,29.99,SW,218,2.2,3.6,12,0.00,,,0.00,VWS V14.01,2013-03-18 01:06:00,
2013-03-17 18:11:00,59.2,6.6,29.99,SSW,209,2.7,4.0,12,0.00,,,0.00,VWS V14.01,2013-03-18 01:11:00,
2013-03-17 18:16:00,58.6,6.2,29.99,SE,141,3.1,3.1,12,0.00,,,0.00,VWS V14.01,2013-03-18 01:16:00,
2013-03-17 18:21:00,58.1,5.8,29.99,SSW,198,0.0,3.1,12,0.00,,,0.00,VWS V14.01,2013-03-18 01:21:00,
2013-03-17 18:26:00,57.9,5.6,29.99,SSW,211,2.7,3.1,12,0.00,,,0.00,VWS V14.01,2013-03-18 01:26:00,
2013-03-17 18:31:00,57.6,5.3,29.99,SSE,158,0.0,2.2,12,0.00,,,0.00,VWS V14.01,2013-03-18 01:31:00,
2013-03-17 18:36:00,57.0,9.8,29.99,ESE,122,2.7,2.7,15,0.00,,,0.00,VWS V14.01,2013-03-18 01:36:00,
2013-03-17 18:41:00,56.7,9.6,29.99,South,178,2.7,2.7,15,0.00,,,0.00,VWS V14.01,2013-03-18 01:41:00,
2013-03-17 18:46:00,56.3,9.3,29.99,SSE,156,2.2,2.7,15,0.00,,,0.00,VWS V14.01,2013-03-18 01:46:00,
2013-03-17 18:51:00,55.8,11.6,29.99,SSE,153,2.7,2.7,17,0.00,,,0.00,VWS V14.01,2013-03-18 01:51:00,
2013-03-17 18:56:00,55.2,12.5,29.99,SE,137,0.0,0.0,18,0.00,,,0.00,VWS V14.01,2013-03-18 01:56:00,
2013-03-17 19:01:00,54.9,12.2,29.99,SSE,161,0.0,0.0,18,0.00,,,0.00,VWS V14.01,2013-03-18 02:01:00,
2013-03-17 19:06:00,54.5,11.9,29.99,SE,131,2.2,2.7,18,0.00,,,0.00,VWS V14.01,2013-03-18 02:06:00,
2013-03-17 19:11:00,54.1,11.6,29.96,SE,131,0.0,0.0,18,0.00,,,0.00,VWS V14.01,2013-03-18 02:11:00,
2013-03-17 19:16:00,53.8,11.3,29.96,SE,131,0.0,0.0,18,0.00,,,0.00,VWS V14.01,2013-03-18 02:16:00,
2013-03-17 19:21:00,53.6,13.5,29.96,SSE,156,0.0,0.0,20,0.00,,,0.00,VWS V14.01,2013-03-18 02:21:00,
2013-03-17 19:26:00,53.4,14.5,29.96,South,191,0.0,0.0,21,0.00,,,0.00,VWS V14.01,2013-03-18 02:26:00,
2013-03-17 19:32:00,53.2,14.3,29.96,SW,217,2.7,2.7,21,0.00,,,0.00,VWS V14.01,2013-03-18 02:32:00,
2013-03-17 19:37:00,53.2,14.3,29.96,SSW,207,0.0,2.2,21,0.00,,,0.00,VWS V14.01,2013-03-18 02:37:00,
2013-03-17 19:42:00,53.1,14.2,29.96,South,189,0.0,0.0,21,0.00,,,0.00,VWS V14.01,2013-03-18 02:42:00,
2013-03-17 19:47:00,53.1,16.3,29.96,SSE,149,0.0,3.1,23,0.00,,,0.00,VWS V14.01,2013-03-18 02:47:00,
2013-03-17 19:52:00,52.9,16.1,29.96,South,184,0.0,2.2,23,0.00,,,0.00,VWS V14.01,2013-03-18 02:52:00,
2013-03-17 19:57:00,52.9,16.1,29.99,SW,223,0.0,3.6,23,0.00,,,0.00,VWS V14.01,2013-03-18 02:57:00,
2013-03-17 20:02:00,52.7,16.0,29.99,SSW,204,2.2,3.1,23,0.00,,,0.00,VWS V14.01,2013-03-18 03:02:00,
2013-03-17 20:07:00,52.2,18.3,29.99,SSE,149,3.1,3.6,26,0.00,,,0.00,VWS V14.01,2013-03-18 03:07:00,
2013-03-17 20:12:00,51.8,18.0,29.99,ESE,123,3.1,3.1,26,0.00,,,0.00,VWS V14.01,2013-03-18 03:12:00,
2013-03-17 20:17:00,51.4,17.7,29.99,SE,143,0.0,3.6,26,0.00,,,0.00,VWS V14.01,2013-03-18 03:17:00,
2013-03-17 20:22:00,50.9,18.1,29.99,SSE,155,3.1,3.6,27,0.00,,,0.00,VWS V14.01,2013-03-18 03:22:00,
2013-03-17 20:27:00,50.5,17.8,29.99,SSE,152,0.0,0.0,27,0.00,,,0.00,VWS V14.01,2013-03-18 03:27:00,
2013-03-17 20:32:00,50.4,17.7,29.99,SSE,157,2.2,2.2,27,0.00,,,0.00,VWS V14.01,2013-03-18 03:32:00,
2013-03-17 20:37:00,50.2,18.4,29.99,SSE,151,2.7,3.1,28,0.00,,,0.00,VWS V14.01,2013-03-18 03:37:00,
2013-03-17 20:42:00,50.0,18.2,29.99,SSE,167,3.1,3.6,28,0.00,,,0.00,VWS V14.01,2013-03-18 03:42:00,
2013-03-17 20:47:00,49.8,18.9,29.99,SW,236,3.1,3.1,29,0.00,,,0.00,VWS V14.01,2013-03-18 03:47:00,
2013-03-17 20:52:00,49.8,19.6,29.99,SSW,210,3.1,3.1,30,0.00,,,0.00,VWS V14.01,2013-03-18 03:52:00,
2013-03-17 20:57:00,49.8,21.2,29.99,SW,214,2.7,2.7,32,0.00,,,0.00,VWS V14.01,2013-03-18 03:57:00,
2013-03-17 21:00:00,49.8,21.9,29.99,SSW,210,2.7,3.1,33,0.00,,,0.00,VWS V14.01,2013-03-18 04:00:00,
2013-03-17 21:05:00,49.6,21.7,29.99,SW,224,0.0,0.0,33,0.00,,,0.00,VWS V14.01,2013-03-18 04:05:00,
2013-03-17 21:10:00,49.5,21.6,29.99,SW,224,0.0,0.0,33,0.00,,,0.00,VWS V14.01,2013-03-18 04:10:00,
2013-03-17 21:15:00,49.5,21.6,29.99,SW,224,0.0,0.0,33,0.00,,,0.00,VWS V14.01,2013-03-18 04:15:00,
2013-03-17 21:20:00,49.3,21.4,29.99,SW,224,0.0,0.0,33,0.00,,,0.00,VWS V14.01,2013-03-18 04:20:00,
2013-03-17 21:25:00,49.3,22.1,29.99,SW,224,0.0,0.0,34,0.00,,,0.00,VWS V14.01,2013-03-18 04:25:00,
2013-03-17 21:30:00,49.3,22.1,29.99,SW,224,0.0,0.0,34,0.00,,,0.00,VWS V14.01,2013-03-18 04:30:00,
2013-03-17 21:35:00,49.3,22.1,29.99,SW,224,0.0,0.0,34,0.00,,,0.00,VWS V14.01,2013-03-18 04:35:00,
2013-03-17 21:40:00,49.1,22.0,30.02,SW,224,0.0,0.0,34,0.00,,,0.00,VWS V14.01,2013-03-18 04:40:00,
2013-03-17 21:45:00,49.1,22.0,30.02,SW,224,0.0,0.0,34,0.00,,,0.00,VWS V14.01,2013-03-18 04:45:00,
2013-03-17 21:50:00,48.9,22.5,30.02,SW,224,0.0,0.0,35,0.00,,,0.00,VWS V14.01,2013-03-18 04:50:00,
2013-03-17 21:55:00,48.9,22.5,30.02,SW,224,0.0,0.0,35,0.00,,,0.00,VWS V14.01,2013-03-18 04:55:00,
2013-03-17 22:00:00,48.7,22.3,30.02,SW,224,0.0,0.0,35,0.00,,,0.00,VWS V14.01,2013-03-18 05:00:00,
2013-03-17 22:05:00,48.7,22.3,30.02,SE,130,3.1,3.1,35,0.00,,,0.00,VWS V14.01,2013-03-18 05:05:00,
2013-03-17 22:10:00,48.7,23.0,30.02,East,100,3.1,3.6,36,0.00,,,0.00,VWS V14.01,2013-03-18 05:10:00,
2013-03-17 22:15:00,48.9,23.2,29.99,ESE,121,0.0,0.0,36,0.00,,,0.00,VWS V14.01,2013-03-18 05:15:00,
2013-03-17 22:20:00,49.1,24.0,29.99,ESE,121,0.0,0.0,37,0.00,,,0.00,VWS V14.01,2013-03-18 05:20:00,
2013-03-17 22:25:00,49.1,23.3,29.99,ESE,103,0.0,0.0,36,0.00,,,0.00,VWS V14.01,2013-03-18 05:25:00,
2013-03-17 22:30:00,49.1,23.3,29.99,ESE,103,0.0,0.0,36,0.00,,,0.00,VWS V14.01,2013-03-18 05:30:00,
2013-03-17 22:35:00,48.9,23.2,29.99,ESE,103,0.0,0.0,36,0.00,,,0.00,VWS V14.01,2013-03-18 05:35:00,
2013-03-17 22:40:00,48.7,23.0,30.02,ESE,103,0.0,0.0,36,0.00,,,0.00,VWS V14.01,2013-03-18 05:40:00,
2013-03-17 22:45:00,48.6,22.8,30.02,ESE,103,0.0,0.0,36,0.00,,,0.00,VWS V14.01,2013-03-18 05:45:00,
2013-03-17 22:50:00,48.4,22.7,30.02,ESE,103,0.0,0.0,36,0.00,,,0.00,VWS V14.01,2013-03-18 05:50:00,
2013-03-17 22:55:00,48.4,22.7,30.02,ESE,103,0.0,0.0,36,0.00,,,0.00,VWS V14.01,2013-03-18 05:55:00,
2013-03-17 23:00:00,48.2,22.5,30.02,ESE,103,0.0,0.0,36,0.00,,,0.00,VWS V14.01,2013-03-18 06:00:00,
2013-03-17 23:05:00,48.2,23.2,30.02,ESE,103,0.0,0.0,37,0.00,,,0.00,VWS V14.01,2013-03-18 06:05:00,
2013-03-17 23:10:00,48.0,23.0,30.02,ESE,103,0.0,0.0,37,0.00,,,0.00,VWS V14.01,2013-03-18 06:10:00,
2013-03-17 23:15:00,47.8,22.9,30.02,ESE,103,0.0,0.0,37,0.00,,,0.00,VWS V14.01,2013-03-18 06:15:00,
2013-03-17 23:20:00,48.0,23.0,30.02,WSW,242,0.0,3.6,37,0.00,,,0.00,VWS V14.01,2013-03-18 06:20:00,
2013-03-17 23:25:00,48.2,23.2,30.02,SW,229,2.2,3.1,37,0.00,,,0.00,VWS V14.01,2013-03-18 06:25:00,
2013-03-17 23:30:00,48.0,23.6,30.02,South,185,0.0,2.2,38,0.00,,,0.00,VWS V14.01,2013-03-18 06:30:00,
2013-03-17 23:36:00,47.8,23.5,30.02,South,170,0.0,0.0,38,0.00,,,0.00,VWS V14.01,2013-03-18 06:36:00,
2013-03-17 23:41:00,47.7,23.3,30.02,ESE,122,0.0,0.0,38,0.00,,,0.00,VWS V14.01,2013-03-18 06:41:00,
2013-03-17 23:46:00,47.7,23.3,30.02,SE,125,3.1,3.6,38,0.00,,,0.00,VWS V14.01,2013-03-18 06:46:00,
2013-03-17 23:51:00,47.7,23.3,30.02,SE,144,2.7,3.1,38,0.00,,,0.00,VWS V14.01,2013-03-18 06:51:00,
2013-03-17 23:56:00,47.5,23.2,29.99,SSE,149,2.2,2.7,38,0.00,,,0.00,VWS V14.01,2013-03-18 06:56:00,